This is the latest recevied weather packets stored in our database for station/object DH4BS-10. If no packets are shown the sender has not sent any weather packets the latest 10 day(s).
| Time | Temp. | Humidity | Pressure | Rain* | Wind** | Luminosity | Snow |
|---|---|---|---|---|---|---|---|
| 1777925639 | 26.11° C | 38% | 1014.1 hPa | - | - | - | - |
| 1777922043 | 27.22° C | 38% | 1014.3 hPa | - | - | - | - |
| 1777918443 | 27.78° C | 38% | 1014 hPa | - | - | - | - |
| 1777914843 | 28.89° C | 38% | 1013.5 hPa | - | - | - | - |
| 1777911243 | 31.11° C | 37% | 1013.2 hPa | - | - | - | - |
| 1777907642 | 31.67° C | 36% | 1012.5 hPa | - | - | - | - |
| 1777904042 | 31.11° C | 36% | 1013 hPa | - | - | - | - |
| 1777900442 | 30.56° C | 36% | 1013.2 hPa | - | - | - | - |
| 1777896842 | 30° C | 37% | 1013.7 hPa | - | - | - | - |
| 1777893242 | 27.78° C | 36% | 1014 hPa | - | - | - | - |
| 1777889642 | 25.56° C | 36% | 1014.2 hPa | - | - | - | - |
| 1777886041 | 23.89° C | 37% | 1014.6 hPa | - | - | - | - |
| 1777882441 | 22.78° C | 37% | 1014.9 hPa | - | - | - | - |
| 1777878841 | 22.22° C | 37% | 1014.8 hPa | - | - | - | - |
| 1777875241 | 22.22° C | 37% | 1014.2 hPa | - | - | - | - |
| 1777871641 | 22.78° C | 37% | 1013.7 hPa | - | - | - | - |
| 1777868041 | 22.78° C | 36% | 1013.6 hPa | - | - | - | - |
| 1777864440 | 23.89° C | 36% | 1013.5 hPa | - | - | - | - |
| 1777860840 | 25.56° C | 34% | 1013.3 hPa | - | - | - | - |
| 1777857240 | 24.44° C | 37% | 1013.2 hPa | - | - | - | - |
| 1777853640 | 25° C | 36% | 1013.3 hPa | - | - | - | - |
| 1777850040 | 26.11° C | 36% | 1013.2 hPa | - | - | - | - |
| 1777846439 | 26.67° C | 36% | 1013.3 hPa | - | - | - | - |
| 1777842839 | 27.22° C | 36% | 1013.4 hPa | - | - | - | - |
| 1777839239 | 27.78° C | 35% | 1013.3 hPa | - | - | - | - |
* Rain since midnight (hover to see other rain measurements)
** Current wind speed in m/s (hover to see current wind gust speed)